Time;durP1;ratioP1;P1;durP2;ratioP2;P2;SDS_P1;SDS_P2;PMS_P1;PMS_P2;Temp;Humidity;BMP_temperature;BMP_pressure;BME280_temperature;BME280_humidity;BME280_pressure;Samples;Min_cycle;Max_cycle;Signal;HPM_P1;HPM_P2
2023/04/01 00:01:16;;;;;;;2.80;0.57;;;;;;;;;;4997343;28;20049;-74
2023/04/01 00:03:44;;;;;;;1.20;0.50;;;;;;;;;;4997633;28;20049;-74
2023/04/01 00:06:16;;;;;;;2.55;0.50;;;;;;;;;;4997731;28;20060;-74
2023/04/01 00:08:44;;;;;;;0.80;0.40;;;;;;;;;;4997383;28;20053;-75
2023/04/01 00:11:11;;;;;;;0.55;0.20;;;;;;;;;;5003142;28;20040;-76
2023/04/01 00:13:37;;;;;;;3.42;0.50;;;;;;;;;;5049497;28;20143;-75
2023/04/01 00:16:05;;;;;;;0.73;0.35;;;;;;;;;;5016672;28;20053;-76
2023/04/01 00:18:47;;;;;;;2.88;0.52;;;;;;;;;;5020499;28;20052;-74
2023/04/01 00:21:14;;;;;;;4.35;0.90;;;;;;;;;;5049501;28;20140;-73
2023/04/01 00:23:41;;;;;;;3.10;0.77;;;;;;;;;;5032783;28;20052;-75
2023/04/01 00:26:08;;;;;;;4.65;0.73;;;;;;;;;;4998451;28;20050;-75
2023/04/01 00:28:35;;;;;;;1.98;0.40;;;;;;;;;;5029348;28;20053;-74
2023/04/01 00:31:09;;;;;;;1.15;0.40;;;;;;;;;;4996576;28;20042;-75
2023/04/01 00:33:36;;;;;;;1.80;0.50;;;;;;;;;;4996813;28;20140;-74
2023/04/01 00:36:17;;;;;;;4.63;1.42;;;;;;;;;;4996653;28;20049;-74
2023/04/01 00:38:45;;;;;;;1.15;0.40;;;;;;;;;;5020004;28;20087;-74
2023/04/01 00:41:14;;;;;;;1.25;0.40;;;;;;;;;;5016268;28;20049;-76
2023/04/01 00:43:42;;;;;;;2.08;0.40;;;;;;;;;;5016583;28;20099;-75
2023/04/01 00:46:09;;;;;;;2.78;0.77;;;;;;;;;;5016748;28;20064;-74
2023/04/01 00:48:38;;;;;;;2.90;1.27;;;;;;;;;;5016466;28;20063;-74
2023/04/01 00:51:11;;;;;;;2.85;0.47;;;;;;;;;;5016435;28;20140;-76
2023/04/01 00:53:40;;;;;;;3.88;0.52;;;;;;;;;;5044552;28;20052;-75
2023/04/01 00:56:12;;;;;;;1.85;0.55;;;;;;;;;;5016212;28;20063;-76
2023/04/01 00:58:41;;;;;;;4.30;0.77;;;;;;;;;;5032920;28;20140;-76
2023/04/01 01:01:09;;;;;;;2.20;0.95;;;;;;;;;;5015751;28;20045;-76
2023/04/01 01:03:36;;;;;;;2.78;0.77;;;;;;;;;;5016156;28;20048;-76
2023/04/01 01:06:10;;;;;;;2.17;0.55;;;;;;;;;;5031323;28;20056;-77
2023/04/01 01:08:50;;;;;;;3.38;0.50;;;;;;;;;;5028787;28;20057;-76
2023/04/01 01:11:19;;;;;;;1.48;0.60;;;;;;;;;;5037068;28;20045;-75
2023/04/01 01:13:56;;;;;;;2.95;0.50;;;;;;;;;;4999904;28;20619;-76
2023/04/01 01:16:32;;;;;;;3.00;0.52;;;;;;;;;;5001047;28;20077;-75
2023/04/01 01:19:04;;;;;;;1.77;0.68;;;;;;;;;;5033081;28;20061;-75
2023/04/01 01:21:47;;;;;;;2.00;0.70;;;;;;;;;;5064941;28;20045;-76
2023/04/01 01:24:39;;;;;;;3.03;0.60;;;;;;;;;;5048665;28;20045;-76
2023/04/01 01:27:21;;;;;;;2.80;0.82;;;;;;;;;;5065441;28;20053;-77
2023/04/01 01:30:12;;;;;;;2.67;0.90;;;;;;;;;;5016148;28;20049;-77
2023/04/01 01:32:51;;;;;;;3.80;0.70;;;;;;;;;;5069090;28;20053;-74
2023/04/01 01:35:37;;;;;;;1.75;0.60;;;;;;;;;;5053037;28;20063;-75
2023/04/01 01:38:07;;;;;;;4.35;0.70;;;;;;;;;;5029456;28;20060;-75
2023/04/01 01:40:35;;;;;;;2.28;0.50;;;;;;;;;;5015361;28;20049;-75
2023/04/01 01:43:06;;;;;;;2.55;0.50;;;;;;;;;;5019335;28;20049;-75
2023/04/01 01:45:35;;;;;;;2.00;0.50;;;;;;;;;;5019487;28;20052;-75
2023/04/01 01:48:02;;;;;;;2.20;0.55;;;;;;;;;;5019306;28;20045;-75
2023/04/01 01:50:30;;;;;;;1.17;0.50;;;;;;;;;;5030420;28;20121;-75
2023/04/01 01:53:04;;;;;;;2.17;0.50;;;;;;;;;;5035879;28;20412;-75
2023/04/01 01:55:36;;;;;;;2.70;0.50;;;;;;;;;;5019352;28;20049;-76
2023/04/01 01:58:24;;;;;;;2.00;0.68;;;;;;;;;;5019312;28;20059;-75
2023/04/01 02:01:04;;;;;;;4.30;0.45;;;;;;;;;;5005584;28;20494;-76
2023/04/01 02:03:34;;;;;;;1.98;0.50;;;;;;;;;;5017029;28;20085;-75
2023/04/01 02:06:03;;;;;;;1.83;0.45;;;;;;;;;;5051924;28;20052;-75
2023/04/01 02:08:57;;;;;;;1.60;0.57;;;;;;;;;;5019389;28;20440;-73
2023/04/01 02:11:56;;;;;;;1.70;0.93;;;;;;;;;;5014610;28;20128;-74
2023/04/01 02:14:24;;;;;;;2.35;0.38;;;;;;;;;;5002733;28;20502;-75
2023/04/01 02:16:56;;;;;;;2.67;1.05;;;;;;;;;;5000050;28;20115;-76
2023/04/01 02:19:28;;;;;;;3.55;0.50;;;;;;;;;;5018503;28;20107;-76
2023/04/01 02:21:59;;;;;;;2.88;0.50;;;;;;;;;;5019006;28;20053;-76
2023/04/01 02:24:26;;;;;;;3.78;0.35;;;;;;;;;;5019076;28;20132;-76
2023/04/01 02:26:53;;;;;;;1.48;0.45;;;;;;;;;;5018492;28;20049;-76
2023/04/01 02:29:21;;;;;;;1.50;0.47;;;;;;;;;;5016754;28;20053;-76
2023/04/01 02:31:49;;;;;;;1.30;0.30;;;;;;;;;;4998772;28;20057;-76
2023/04/01 02:34:15;;;;;;;1.00;0.30;;;;;;;;;;4998905;28;20512;-76
2023/04/01 02:36:42;;;;;;;1.80;0.40;;;;;;;;;;5015019;28;20115;-75
2023/04/01 02:39:09;;;;;;;1.75;0.60;;;;;;;;;;4998876;28;20420;-75
2023/04/01 02:41:41;;;;;;;1.88;0.47;;;;;;;;;;5017538;28;20128;-75
2023/04/01 02:44:08;;;;;;;2.10;0.80;;;;;;;;;;5018521;28;20059;-76
2023/04/01 02:46:35;;;;;;;1.50;0.40;;;;;;;;;;5018186;28;20064;-76
2023/04/01 02:49:03;;;;;;;0.65;0.30;;;;;;;;;;5005715;28;20056;-76
2023/04/01 02:51:29;;;;;;;1.08;0.30;;;;;;;;;;4998309;28;20045;-76
2023/04/01 02:53:58;;;;;;;1.38;0.30;;;;;;;;;;4998943;28;20111;-77
2023/04/01 02:56:25;;;;;;;2.10;0.30;;;;;;;;;;4998468;28;20064;-76
2023/04/01 02:58:53;;;;;;;2.67;0.38;;;;;;;;;;5009091;28;20080;-76
2023/04/01 03:01:20;;;;;;;0.82;0.40;;;;;;;;;;5050944;28;20056;-75
2023/04/01 03:03:47;;;;;;;0.95;0.30;;;;;;;;;;5018440;28;20110;-76
2023/04/01 03:06:15;;;;;;;6.55;0.40;;;;;;;;;;5018198;28;20053;-76
2023/04/01 03:08:41;;;;;;;1.40;0.25;;;;;;;;;;5034203;28;20497;-75
2023/04/01 03:11:09;;;;;;;0.55;0.20;;;;;;;;;;5017697;28;20052;-76
2023/04/01 03:13:36;;;;;;;2.22;1.17;;;;;;;;;;5018011;28;20059;-76
2023/04/01 03:16:03;;;;;;;0.60;0.20;;;;;;;;;;5017926;28;20055;-75
2023/04/01 03:18:30;;;;;;;0.30;0.10;;;;;;;;;;5010219;28;20049;-76
2023/04/01 03:20:57;;;;;;;3.53;0.22;;;;;;;;;;4997588;28;20048;-76
2023/04/01 03:23:24;;;;;;;3.35;0.40;;;;;;;;;;4997908;28;20060;-76
2023/04/01 03:25:50;;;;;;;0.15;0.10;;;;;;;;;;4997841;28;20485;-76
2023/04/01 03:28:17;;;;;;;0.95;0.15;;;;;;;;;;5003010;28;20048;-75
2023/04/01 03:30:44;;;;;;;0.38;0.20;;;;;;;;;;5033828;28;20520;-75
2023/04/01 03:33:11;;;;;;;1.05;0.32;;;;;;;;;;5050230;28;20060;-75
2023/04/01 03:35:37;;;;;;;3.33;0.25;;;;;;;;;;5017384;28;20052;-75
2023/04/01 03:38:04;;;;;;;0.65;0.47;;;;;;;;;;5046655;28;20107;-75
2023/04/01 03:40:32;;;;;;;1.30;0.40;;;;;;;;;;5029824;28;20513;-75
2023/04/01 03:42:59;;;;;;;0.22;0.20;;;;;;;;;;4997887;28;20088;-75
2023/04/01 03:45:26;;;;;;;1.27;0.25;;;;;;;;;;4997801;28;20083;-76
2023/04/01 03:47:53;;;;;;;0.22;0.10;;;;;;;;;;4998697;28;20060;-76
2023/04/01 03:50:20;;;;;;;0.52;0.20;;;;;;;;;;5017081;28;20087;-76
2023/04/01 03:52:47;;;;;;;1.27;0.43;;;;;;;;;;5049117;28;20060;-76
2023/04/01 03:55:14;;;;;;;0.82;0.20;;;;;;;;;;5033300;28;20850;-76
2023/04/01 03:57:41;;;;;;;0.30;0.10;;;;;;;;;;5017188;28;20049;-76
2023/04/01 04:00:08;;;;;;;0.40;0.10;;;;;;;;;;5013263;28;20085;-76
2023/04/01 04:02:35;;;;;;;1.42;0.20;;;;;;;;;;5046074;28;20046;-76
2023/04/01 04:05:02;;;;;;;0.60;0.30;;;;;;;;;;5062476;28;20557;-75
2023/04/01 04:07:29;;;;;;;0.50;0.28;;;;;;;;;;5045913;28;20099;-75
2023/04/01 04:09:56;;;;;;;1.30;0.28;;;;;;;;;;5080478;28;20048;-76
2023/04/01 04:12:22;;;;;;;1.23;0.50;;;;;;;;;;5032802;28;20056;-75
2023/04/01 04:14:49;;;;;;;1.40;0.30;;;;;;;;;;5033034;28;20091;-74
2023/04/01 04:17:16;;;;;;;1.70;0.20;;;;;;;;;;5032918;28;20049;-75
2023/04/01 04:19:42;;;;;;;1.50;0.25;;;;;;;;;;5032195;28;20056;-75
2023/04/01 04:22:09;;;;;;;1.52;0.22;;;;;;;;;;5032387;28;20432;-75
2023/04/01 04:24:36;;;;;;;1.45;0.20;;;;;;;;;;5033248;28;20049;-75
2023/04/01 04:27:03;;;;;;;0.50;0.25;;;;;;;;;;5016893;28;20060;-75
2023/04/01 04:29:30;;;;;;;0.93;0.28;;;;;;;;;;5014509;28;20053;-75
2023/04/01 04:31:57;;;;;;;1.55;0.20;;;;;;;;;;5016307;28;20512;-75
2023/04/01 04:34:24;;;;;;;0.60;0.30;;;;;;;;;;5016717;28;20060;-75
2023/04/01 04:36:50;;;;;;;1.33;0.30;;;;;;;;;;5015963;28;20049;-75
2023/04/01 04:39:17;;;;;;;2.58;0.30;;;;;;;;;;4998102;28;20053;-75
2023/04/01 04:41:44;;;;;;;0.28;0.10;;;;;;;;;;4996385;28;20509;-75
2023/04/01 04:44:11;;;;;;;3.75;0.30;;;;;;;;;;4996980;28;20140;-75
2023/04/01 04:46:39;;;;;;;1.10;0.20;;;;;;;;;;4997184;28;20425;-76
2023/04/01 04:49:06;;;;;;;1.25;0.30;;;;;;;;;;5031604;28;20056;-76
2023/04/01 04:51:35;;;;;;;2.35;0.40;;;;;;;;;;5032132;28;20048;-75
2023/04/01 04:54:03;;;;;;;1.10;0.20;;;;;;;;;;5016867;28;20611;-75
2023/04/01 04:56:30;;;;;;;1.80;0.20;;;;;;;;;;5016293;28;20053;-75
2023/04/01 04:58:57;;;;;;;0.80;0.40;;;;;;;;;;5004513;28;20045;-76
2023/04/01 05:01:24;;;;;;;1.10;0.22;;;;;;;;;;5046981;28;20052;-74
2023/04/01 05:03:51;;;;;;;0.38;0.30;;;;;;;;;;5016247;28;20048;-75
2023/04/01 05:06:19;;;;;;;1.75;0.50;;;;;;;;;;5053352;28;20056;-72
2023/04/01 05:08:49;;;;;;;1.58;0.30;;;;;;;;;;5036747;28;20085;-72
2023/04/01 05:11:20;;;;;;;0.75;0.28;;;;;;;;;;5005007;28;20045;-74
2023/04/01 05:13:47;;;;;;;0.45;0.30;;;;;;;;;;5023521;28;20053;-76
2023/04/01 05:16:16;;;;;;;0.93;0.22;;;;;;;;;;5000315;28;20056;-75
2023/04/01 05:18:43;;;;;;;0.38;0.20;;;;;;;;;;5019876;28;20076;-76
2023/04/01 05:21:11;;;;;;;1.48;0.45;;;;;;;;;;5035968;28;20048;-74
2023/04/01 05:23:38;;;;;;;1.38;0.35;;;;;;;;;;5019930;28;20049;-75
2023/04/01 05:26:07;;;;;;;1.90;0.32;;;;;;;;;;5019861;28;20044;-75
2023/04/01 05:28:33;;;;;;;1.27;0.38;;;;;;;;;;5036066;28;20056;-75
2023/04/01 05:31:01;;;;;;;3.72;0.63;;;;;;;;;;5035901;28;20055;-75
2023/04/01 05:33:28;;;;;;;1.77;0.65;;;;;;;;;;5044864;28;20052;-75
2023/04/01 05:35:55;;;;;;;0.57;0.50;;;;;;;;;;5036648;28;20049;-75
2023/04/01 05:38:22;;;;;;;3.65;0.60;;;;;;;;;;5036565;28;20131;-76
2023/04/01 05:40:49;;;;;;;2.53;0.50;;;;;;;;;;5035390;28;20056;-74
2023/04/01 05:43:16;;;;;;;2.08;1.05;;;;;;;;;;5052212;28;20056;-75
2023/04/01 05:45:42;;;;;;;2.40;0.50;;;;;;;;;;5019299;28;20060;-75
2023/04/01 05:48:09;;;;;;;2.17;1.33;;;;;;;;;;5053273;28;20061;-74
2023/04/01 05:50:36;;;;;;;1.80;0.60;;;;;;;;;;5019474;28;20135;-76
2023/04/01 05:53:03;;;;;;;3.10;0.47;;;;;;;;;;5051984;28;20052;-76
2023/04/01 05:55:30;;;;;;;1.90;0.43;;;;;;;;;;5019547;28;20444;-75
2023/04/01 05:57:58;;;;;;;2.90;0.60;;;;;;;;;;5019157;28;20045;-75
2023/04/01 06:00:25;;;;;;;1.92;0.52;;;;;;;;;;5035343;28;20493;-75
2023/04/01 06:02:52;;;;;;;4.88;0.75;;;;;;;;;;5019173;28;20045;-76
2023/04/01 06:05:25;;;;;;;1.60;1.08;;;;;;;;;;5019185;28;20092;-74
2023/04/01 06:08:00;;;;;;;2.42;0.50;;;;;;;;;;5034640;28;20041;-75
2023/04/01 06:11:04;;;;;;;1.92;0.40;;;;;;;;;;5035531;28;20048;-75
2023/04/01 06:13:37;;;;;;;;;;;;;;;;;;5052217;28;20040;-75
2023/04/01 06:16:23;;;;;;;2.53;0.55;;;;;;;;;;5061056;28;20404;-78
2023/04/01 06:18:55;;;;;;;2.10;0.38;;;;;;;;;;5054010;28;20052;-75
2023/04/01 06:21:43;;;;;;;1.77;0.40;;;;;;;;;;5070389;28;20075;-76
2023/04/01 06:24:51;;;;;;;1.45;0.47;;;;;;;;;;5045307;28;20060;-71
2023/04/01 06:27:40;;;;;;;3.40;0.50;;;;;;;;;;5010060;28;20076;-76
2023/04/01 06:30:32;;;;;;;1.25;0.32;;;;;;;;;;5017206;28;20386;-78
2023/04/01 06:33:08;;;;;;;4.65;1.10;;;;;;;;;;5016996;28;20052;-75
2023/04/01 06:35:37;;;;;;;1.90;0.40;;;;;;;;;;5031676;28;20053;-78
2023/04/01 06:38:29;;;;;;;1.15;0.68;;;;;;;;;;5030811;28;20498;-74
2023/04/01 06:41:21;;;;;;;2.55;0.70;;;;;;;;;;5033732;28;20050;-77
2023/04/01 06:44:05;;;;;;;1.08;0.57;;;;;;;;;;5013636;28;20418;-78
2023/04/01 06:46:36;;;;;;;;;;;;;;;;;;5052753;28;20049;-77
2023/04/01 06:49:40;;;;;;;1.58;0.40;;;;;;;;;;5052254;28;20320;-78
2023/04/01 06:52:33;;;;;;;2.38;0.32;;;;;;;;;;5039568;28;20046;-76
2023/04/01 06:55:18;;;;;;;0.60;0.22;;;;;;;;;;4993989;28;20057;-76
2023/04/01 06:57:48;;;;;;;1.60;0.75;;;;;;;;;;5015475;28;20060;-76
2023/04/01 07:00:20;;;;;;;0.88;0.22;;;;;;;;;;4998064;28;20057;-77
2023/04/01 07:02:53;;;;;;;2.05;0.38;;;;;;;;;;5046996;28;20044;-77
2023/04/01 07:05:20;;;;;;;3.17;0.60;;;;;;;;;;5019176;28;20083;-77
2023/04/01 07:07:53;;;;;;;0.17;0.13;;;;;;;;;;5016981;28;20048;-77
2023/04/01 07:10:42;;;;;;;1.42;0.20;;;;;;;;;;5017626;28;20059;-76
2023/04/01 07:13:14;;;;;;;1.48;0.30;;;;;;;;;;5033435;28;20830;-76
2023/04/01 07:15:43;;;;;;;0.68;0.30;;;;;;;;;;4998219;28;20075;-78
2023/04/01 07:18:22;;;;;;;1.65;0.35;;;;;;;;;;4997783;28;20429;-77
2023/04/01 07:20:49;;;;;;;0.50;0.30;;;;;;;;;;5013570;28;20056;-76
2023/04/01 07:23:28;;;;;;;2.13;0.40;;;;;;;;;;4996932;28;20163;-77
2023/04/01 07:25:58;;;;;;;1.20;0.28;;;;;;;;;;4997778;28;20057;-78
2023/04/01 07:28:29;;;;;;;1.23;0.38;;;;;;;;;;4997499;28;20061;-76
2023/04/01 07:31:16;;;;;;;0.85;0.32;;;;;;;;;;4996886;28;20049;-76
2023/04/01 07:34:02;;;;;;;1.20;0.30;;;;;;;;;;5012439;28;20550;-76
2023/04/01 07:36:53;;;;;;;1.58;0.38;;;;;;;;;;4997675;28;20056;-76
2023/04/01 07:39:28;;;;;;;0.28;0.20;;;;;;;;;;5013171;28;20099;-77
2023/04/01 07:41:55;;;;;;;2.05;0.50;;;;;;;;;;5005856;28;20044;-78
2023/04/01 07:44:37;;;;;;;1.77;0.30;;;;;;;;;;5037094;28;20056;-78
2023/04/01 07:47:42;;;;;;;2.53;1.00;;;;;;;;;;5016103;28;20110;-79
2023/04/01 07:50:25;;;;;;;0.90;0.60;;;;;;;;;;4976858;28;20050;-77
2023/04/01 07:53:01;;;;;;;2.22;0.88;;;;;;;;;;5012907;28;20046;-78
2023/04/01 07:55:37;;;;;;;2.33;1.52;;;;;;;;;;4997651;28;20048;-77
2023/04/01 07:58:41;;;;;;;1.02;0.40;;;;;;;;;;5075275;28;20056;-79
2023/04/01 08:01:20;;;;;;;0.50;0.30;;;;;;;;;;5043324;28;20083;-79
2023/04/01 08:04:05;;;;;;;0.95;0.50;;;;;;;;;;5031095;28;20052;-78
2023/04/01 08:06:37;;;;;;;1.70;0.60;;;;;;;;;;5053133;28;20091;-78
2023/04/01 08:09:34;;;;;;;0.82;0.40;;;;;;;;;;5047894;28;20118;-78
2023/04/01 08:12:19;;;;;;;0.80;0.40;;;;;;;;;;5051514;28;20037;-78
2023/04/01 08:14:56;;;;;;;1.65;0.63;;;;;;;;;;5038603;28;20047;-78
2023/04/01 08:17:58;;;;;;;1.08;0.35;;;;;;;;;;5043755;28;20068;-78
2023/04/01 08:20:32;;;;;;;3.85;0.50;;;;;;;;;;5053901;28;20459;-78
2023/04/01 08:23:03;;;;;;;2.45;0.70;;;;;;;;;;5054293;28;20048;-77
2023/04/01 08:25:30;;;;;;;1.30;0.40;;;;;;;;;;5050075;28;20677;-72
2023/04/01 08:28:20;;;;;;;1.45;0.30;;;;;;;;;;5046205;28;20187;-75
2023/04/01 08:30:56;;;;;;;4.30;0.60;;;;;;;;;;5048160;28;20049;-78
2023/04/01 08:33:30;;;;;;;2.40;0.50;;;;;;;;;;5047951;28;20056;-78
2023/04/01 08:36:28;;;;;;;0.90;0.43;;;;;;;;;;5015248;28;20050;-78
2023/04/01 08:39:09;;;;;;;0.73;0.30;;;;;;;;;;5017071;28;20099;-78
2023/04/01 08:41:54;;;;;;;1.60;0.98;;;;;;;;;;5017004;28;20053;-79
2023/04/01 08:45:00;;;;;;;1.45;0.35;;;;;;;;;;5032090;28;20412;-78
2023/04/01 08:47:39;;;;;;;0.88;0.30;;;;;;;;;;5032167;28;20049;-78
2023/04/01 08:50:37;;;;;;;1.15;0.50;;;;;;;;;;5031735;28;20500;-78
2023/04/01 08:53:31;;;;;;;1.10;0.40;;;;;;;;;;5051212;28;20087;-78
2023/04/01 08:56:40;;;;;;;1.33;0.50;;;;;;;;;;5037541;28;20053;-78
2023/04/01 08:59:27;;;;;;;2.80;0.40;;;;;;;;;;4988631;28;20504;-78
2023/04/01 09:01:57;;;;;;;1.85;0.40;;;;;;;;;;5019641;28;20446;-78
2023/04/01 09:04:30;;;;;;;1.23;0.25;;;;;;;;;;5031025;28;20054;-74
2023/04/01 09:07:15;;;;;;;;;;;;;;;;;;5033800;28;20052;-77
2023/04/01 09:10:24;;;;;;;1.23;0.40;;;;;;;;;;5051769;28;19921;-78
2023/04/01 09:13:14;;;;;;;1.55;0.20;;;;;;;;;;5039697;28;20049;-78
2023/04/01 09:16:03;;;;;;;1.25;0.45;;;;;;;;;;5020125;28;20045;-78
2023/04/01 09:18:57;;;;;;;3.08;0.30;;;;;;;;;;5066741;28;20488;-77
2023/04/01 09:21:50;;;;;;;0.65;0.25;;;;;;;;;;5051874;28;20045;-77
2023/04/01 09:24:43;;;;;;;0.10;0.10;;;;;;;;;;5043417;28;20064;-77
2023/04/01 09:27:30;;;;;;;1.43;0.73;;;;;;;;;;5042932;28;20055;-77
2023/04/01 09:30:11;;;;;;;0.75;0.38;;;;;;;;;;5055042;28;20052;-79
2023/04/01 09:32:53;;;;;;;1.17;0.30;;;;;;;;;;5030910;28;20080;-77
2023/04/01 09:35:27;;;;;;;1.45;1.02;;;;;;;;;;5058659;28;20049;-77
2023/04/01 09:38:08;;;;;;;1.70;0.52;;;;;;;;;;5016719;28;20148;-77
2023/04/01 09:40:53;;;;;;;3.67;0.98;;;;;;;;;;5051044;28;20087;-78
2023/04/01 09:43:50;;;;;;;1.00;0.30;;;;;;;;;;5063793;28;20398;-78
2023/04/01 09:46:26;;;;;;;0.52;0.30;;;;;;;;;;5023763;28;20067;-78
2023/04/01 09:49:06;;;;;;;0.50;0.30;;;;;;;;;;5068991;28;20052;-78
2023/04/01 09:51:33;;;;;;;0.55;0.38;;;;;;;;;;5051586;28;20467;-78
2023/04/01 09:54:18;;;;;;;0.28;0.10;;;;;;;;;;5076513;28;20527;-78
2023/04/01 09:57:13;;;;;;;0.20;0.20;;;;;;;;;;5066136;28;20128;-76
2023/04/01 10:00:09;;;;;;;0.80;0.38;;;;;;;;;;5064718;28;20052;-77
2023/04/01 10:03:07;;;;;;;0.45;0.20;;;;;;;;;;5052652;28;20425;-77
2023/04/01 10:06:09;;;;;;;0.10;0.10;;;;;;;;;;5056571;28;20057;-77
2023/04/01 10:08:51;;;;;;;0.43;0.20;;;;;;;;;;5025641;28;20402;-78
2023/04/01 10:12:13;;;;;;;0.10;0.05;;;;;;;;;;5077284;28;20122;-78
2023/04/01 10:15:01;;;;;;;0.20;0.10;;;;;;;;;;4971134;28;20039;-75
2023/04/01 10:17:55;;;;;;;0.10;0.10;;;;;;;;;;5054198;28;20389;-78
2023/04/01 10:20:38;;;;;;;0.47;0.20;;;;;;;;;;5068458;28;20527;-78
2023/04/01 10:23:22;;;;;;;;;;;;;;;;;;5062066;28;20397;-76
2023/04/01 10:26:01;;;;;;;0.28;0.10;;;;;;;;;;5074017;28;19920;-78
2023/04/01 10:28:53;;;;;;;0.03;0.00;;;;;;;;;;5057627;28;20072;-77
2023/04/01 10:32:09;;;;;;;0.20;0.20;;;;;;;;;;5057900;28;20436;-77
2023/04/01 10:34:49;;;;;;;0.57;0.32;;;;;;;;;;5065454;28;20388;-77
2023/04/01 10:37:35;;;;;;;1.20;0.20;;;;;;;;;;5062675;28;20057;-77
2023/04/01 10:40:13;;;;;;;1.05;0.32;;;;;;;;;;5071282;28;20041;-77
2023/04/01 10:43:17;;;;;;;0.55;0.20;;;;;;;;;;5052259;28;20497;-76
2023/04/01 10:46:19;;;;;;;0.50;0.30;;;;;;;;;;5068464;28;20055;-77
2023/04/01 10:49:06;;;;;;;0.45;0.20;;;;;;;;;;5068744;28;20056;-77
2023/04/01 10:51:58;;;;;;;2.47;0.40;;;;;;;;;;5032966;28;20543;-78
2023/04/01 10:54:56;;;;;;;0.57;0.20;;;;;;;;;;5069492;28;20571;-77
2023/04/01 10:57:44;;;;;;;0.20;0.20;;;;;;;;;;5060727;28;20048;-77
2023/04/01 11:00:33;;;;;;;0.38;0.30;;;;;;;;;;5063435;28;20048;-78
2023/04/01 11:03:18;;;;;;;0.40;0.30;;;;;;;;;;5060889;28;20048;-77
2023/04/01 11:06:24;;;;;;;0.43;0.17;;;;;;;;;;5059159;28;20053;-77
2023/04/01 11:09:45;;;;;;;0.25;0.25;;;;;;;;;;5069594;28;20048;-77
2023/04/01 11:12:44;;;;;;;1.05;0.95;;;;;;;;;;4995488;28;20046;-78
2023/04/01 11:15:39;;;;;;;1.13;0.52;;;;;;;;;;5010345;28;20543;-77
2023/04/01 11:18:34;;;;;;;1.23;0.40;;;;;;;;;;5067215;28;20112;-78
2023/04/01 11:21:25;;;;;;;1.63;0.82;;;;;;;;;;5057591;28;20056;-77
2023/04/01 11:24:28;;;;;;;1.70;1.20;;;;;;;;;;5057851;28;20452;-77
2023/04/01 11:27:03;;;;;;;0.90;0.65;;;;;;;;;;5058540;28;20048;-77
2023/04/01 11:29:42;;;;;;;3.25;1.73;;;;;;;;;;5067517;28;20075;-78
2023/04/01 11:33:05;;;;;;;0.80;0.35;;;;;;;;;;5062052;28;20061;-78
2023/04/01 11:35:32;;;;;;;0.17;0.13;;;;;;;;;;5043449;28;20135;-78
2023/04/01 11:38:03;;;;;;;0.22;0.22;;;;;;;;;;5060201;28;20048;-77
2023/04/01 11:41:26;;;;;;;0.38;0.13;;;;;;;;;;5052619;28;20668;-79
2023/04/01 11:43:58;;;;;;;0.38;0.10;;;;;;;;;;5013721;28;20053;-79
2023/04/01 11:46:33;;;;;;;0.10;0.10;;;;;;;;;;5070239;28;20076;-79
2023/04/01 11:49:36;;;;;;;0.10;0.00;;;;;;;;;;5060323;28;20048;-79
2023/04/01 11:52:27;;;;;;;0.10;0.10;;;;;;;;;;5020657;28;20075;-78
2023/04/01 11:55:28;;;;;;;0.10;0.08;;;;;;;;;;5067421;28;20045;-77
2023/04/01 11:58:32;;;;;;;0.38;0.20;;;;;;;;;;5057440;28;20104;-78
2023/04/01 12:01:28;;;;;;;0.20;0.08;;;;;;;;;;5069933;28;20071;-78
2023/04/01 12:04:23;;;;;;;0.10;0.10;;;;;;;;;;5036512;28;20071;-77
2023/04/01 12:07:10;;;;;;;1.42;0.20;;;;;;;;;;5036342;28;20052;-77
2023/04/01 12:09:57;;;;;;;0.10;0.10;;;;;;;;;;5043163;28;20049;-78
2023/04/01 12:12:23;;;;;;;1.15;0.13;;;;;;;;;;5033097;28;20050;-78
2023/04/01 12:15:22;;;;;;;0.10;0.03;;;;;;;;;;5031480;28;20061;-76
2023/04/01 12:18:00;;;;;;;0.10;0.10;;;;;;;;;;4991030;28;20075;-78
2023/04/01 12:20:37;;;;;;;0.17;0.15;;;;;;;;;;5001452;28;20132;-78
2023/04/01 12:23:27;;;;;;;0.10;0.10;;;;;;;;;;5016403;28;20053;-77
2023/04/01 12:26:32;;;;;;;0.10;0.10;;;;;;;;;;5023153;28;20419;-78
2023/04/01 12:29:23;;;;;;;0.30;0.28;;;;;;;;;;4989184;28;20056;-78
2023/04/01 12:32:02;;;;;;;0.20;0.20;;;;;;;;;;5052872;28;20124;-78
2023/04/01 12:34:49;;;;;;;0.25;0.10;;;;;;;;;;5021399;28;20065;-78
2023/04/01 12:37:44;;;;;;;0.00;0.00;;;;;;;;;;5047964;28;20072;-77
2023/04/01 12:40:43;;;;;;;0.13;0.03;;;;;;;;;;5034097;28;20494;-77
2023/04/01 12:43:22;;;;;;;0.32;0.15;;;;;;;;;;5033227;28;20054;-78
2023/04/01 12:46:25;;;;;;;0.17;0.15;;;;;;;;;;5033214;28;20054;-78
2023/04/01 12:48:52;;;;;;;;;;;;;;;;;;5036338;28;20053;-78
2023/04/01 12:51:51;;;;;;;0.10;0.10;;;;;;;;;;5084738;28;19924;-79
2023/04/01 12:54:31;;;;;;;1.65;0.20;;;;;;;;;;5055187;28;20425;-78
2023/04/01 12:57:20;;;;;;;0.10;0.10;;;;;;;;;;5053655;28;20148;-77
2023/04/01 12:59:59;;;;;;;0.22;0.13;;;;;;;;;;5021076;28;20045;-75
2023/04/01 13:02:32;;;;;;;0.40;0.20;;;;;;;;;;5045090;28;20044;-75
2023/04/01 13:05:21;;;;;;;0.22;0.13;;;;;;;;;;5075193;28;20048;-76
2023/04/01 13:08:13;;;;;;;0.68;0.30;;;;;;;;;;5071591;28;20113;-77
2023/04/01 13:11:02;;;;;;;0.55;0.22;;;;;;;;;;5080080;28;20063;-76
2023/04/01 13:13:39;;;;;;;0.17;0.05;;;;;;;;;;5050650;28;20056;-76
2023/04/01 13:16:29;;;;;;;0.15;0.15;;;;;;;;;;5056894;28;20071;-76
2023/04/01 13:19:40;;;;;;;0.60;0.40;;;;;;;;;;5050094;28;20056;-76
2023/04/01 13:22:53;;;;;;;0.77;0.40;;;;;;;;;;5019563;28;20068;-77
2023/04/01 13:25:35;;;;;;;0.25;0.22;;;;;;;;;;4995969;28;20106;-76
2023/04/01 13:28:12;;;;;;;0.20;0.20;;;;;;;;;;5049032;28;20049;-76
2023/04/01 13:31:03;;;;;;;0.35;0.10;;;;;;;;;;5043186;28;20049;-77
2023/04/01 13:33:48;;;;;;;0.40;0.10;;;;;;;;;;5039946;28;20048;-76
2023/04/01 13:36:33;;;;;;;1.10;0.10;;;;;;;;;;5031210;28;20048;-77
2023/04/01 13:39:35;;;;;;;0.30;0.10;;;;;;;;;;5038917;28;20052;-76
2023/04/01 13:42:16;;;;;;;2.03;1.17;;;;;;;;;;4990626;28;20061;-76
2023/04/01 13:45:12;;;;;;;0.13;0.10;;;;;;;;;;5038492;28;20045;-77
2023/04/01 13:47:54;;;;;;;0.63;0.17;;;;;;;;;;5038601;28;20052;-76
2023/04/01 13:51:04;;;;;;;0.10;0.10;;;;;;;;;;5053404;28;20301;-77
2023/04/01 13:54:15;;;;;;;0.15;0.10;;;;;;;;;;5027664;28;20357;-77
2023/04/01 13:56:51;;;;;;;0.90;0.30;;;;;;;;;;5009604;28;20060;-77
2023/04/01 13:59:26;;;;;;;0.03;0.03;;;;;;;;;;5070120;28;20524;-77
2023/04/01 14:02:25;;;;;;;0.65;0.28;;;;;;;;;;5059325;28;20484;-78
2023/04/01 14:05:10;;;;;;;0.10;0.10;;;;;;;;;;5043649;28;20052;-79
2023/04/01 14:07:50;;;;;;;0.05;0.05;;;;;;;;;;5037486;28;20463;-78
2023/04/01 14:10:39;;;;;;;0.00;0.00;;;;;;;;;;5054400;28;20053;-77
2023/04/01 14:13:12;;;;;;;1.65;0.20;;;;;;;;;;5069765;28;20175;-80
2023/04/01 14:15:51;;;;;;;0.30;0.10;;;;;;;;;;5062644;28;20056;-78
2023/04/01 14:18:53;;;;;;;0.32;0.20;;;;;;;;;;5066807;28;20151;-78
2023/04/01 14:21:39;;;;;;;0.00;0.00;;;;;;;;;;5065659;28;20049;-78
2023/04/01 14:24:23;;;;;;;0.10;0.10;;;;;;;;;;5065820;28;20040;-77
2023/04/01 14:26:59;;;;;;;0.98;0.10;;;;;;;;;;5055270;28;20064;-77
2023/04/01 14:30:03;;;;;;;0.08;0.08;;;;;;;;;;5057623;28;20048;-78
2023/04/01 14:32:49;;;;;;;0.20;0.20;;;;;;;;;;5054504;28;20058;-76
2023/04/01 14:35:18;;;;;;;0.20;0.20;;;;;;;;;;5066832;28;20053;-79
2023/04/01 14:38:04;;;;;;;0.63;0.20;;;;;;;;;;5071739;28;20512;-77
2023/04/01 14:41:01;;;;;;;0.73;0.28;;;;;;;;;;5059121;28;20068;-78
2023/04/01 14:43:53;;;;;;;1.30;0.25;;;;;;;;;;5063804;28;20053;-77
2023/04/01 14:46:25;;;;;;;0.15;0.15;;;;;;;;;;5018255;28;20057;-76
2023/04/01 14:49:15;;;;;;;2.30;0.60;;;;;;;;;;5066041;28;20053;-76
2023/04/01 14:51:42;;;;;;;1.75;1.00;;;;;;;;;;5055905;28;20044;-76
2023/04/01 14:54:31;;;;;;;0.55;0.50;;;;;;;;;;5019169;28;20053;-79
2023/04/01 14:57:13;;;;;;;0.10;0.10;;;;;;;;;;5033698;28;20055;-79
2023/04/01 15:00:06;;;;;;;0.10;0.10;;;;;;;;;;5041275;28;20056;-77
2023/04/01 15:02:51;;;;;;;0.15;0.15;;;;;;;;;;5061026;28;20198;-79
2023/04/01 15:05:43;;;;;;;0.20;0.20;;;;;;;;;;5036506;28;20075;-79
2023/04/01 15:08:30;;;;;;;0.20;0.20;;;;;;;;;;5068425;28;20767;-77
2023/04/01 15:11:21;;;;;;;0.50;0.15;;;;;;;;;;5048446;28;20124;-77
2023/04/01 15:14:00;;;;;;;0.10;0.10;;;;;;;;;;5052703;28;20041;-78
2023/04/01 15:16:32;;;;;;;0.35;0.30;;;;;;;;;;5034378;28;20063;-75
2023/04/01 15:19:23;;;;;;;0.40;0.38;;;;;;;;;;5052603;28;20134;-78
2023/04/01 15:22:27;;;;;;;0.70;0.60;;;;;;;;;;5035869;28;20045;-77
2023/04/01 15:25:16;;;;;;;0.75;0.60;;;;;;;;;;5066590;28;20069;-79
2023/04/01 15:27:54;;;;;;;0.45;0.30;;;;;;;;;;5034284;28;20057;-79
2023/04/01 15:30:37;;;;;;;0.35;0.20;;;;;;;;;;5034046;28;20053;-79
2023/04/01 15:33:11;;;;;;;0.10;0.10;;;;;;;;;;5001857;28;20052;-78
2023/04/01 15:35:40;;;;;;;0.75;0.20;;;;;;;;;;5022322;28;20512;-79
2023/04/01 15:38:11;;;;;;;0.25;0.20;;;;;;;;;;5053835;28;20110;-79
2023/04/01 15:40:44;;;;;;;0.13;0.10;;;;;;;;;;5078107;28;20079;-78
2023/04/01 15:43:21;;;;;;;0.38;0.20;;;;;;;;;;5072616;28;20044;-78
2023/04/01 15:46:14;;;;;;;2.08;0.30;;;;;;;;;;5054083;28;20053;-79
2023/04/01 15:49:05;;;;;;;0.30;0.30;;;;;;;;;;5057268;28;20051;-79
2023/04/01 15:51:56;;;;;;;0.43;0.40;;;;;;;;;;5042080;28;20065;-79
2023/04/01 15:54:48;;;;;;;0.65;0.50;;;;;;;;;;5038120;28;20049;-79
2023/04/01 15:57:24;;;;;;;0.20;0.20;;;;;;;;;;5055757;28;20046;-79
2023/04/01 16:00:22;;;;;;;0.20;0.20;;;;;;;;;;5049865;28;20421;-79